createdAt,value
2023-04-01T00:02:01.379Z,98980.75
2023-04-01T00:04:28.253Z,98984.25
2023-04-01T00:06:55.073Z,98983.88
2023-04-01T00:09:21.815Z,98988.38
2023-04-01T00:11:48.590Z,98985.72
2023-04-01T00:14:16.710Z,98980.41
2023-04-01T00:16:43.467Z,98992.91
2023-04-01T00:19:10.493Z,98991.03
2023-04-01T00:21:37.850Z,98991.28
2023-04-01T00:24:04.945Z,98992.09
2023-04-01T00:26:31.739Z,98987.00
2023-04-01T00:28:59.447Z,98986.75
2023-04-01T00:31:27.923Z,98990.47
2023-04-01T00:33:56.202Z,98990.47
2023-04-01T00:36:24.175Z,98983.28
2023-04-01T00:38:51.514Z,98994.97
2023-04-01T00:41:19.990Z,98990.47
2023-04-01T00:43:48.766Z,98996.59
2023-04-01T00:46:15.933Z,98992.09
2023-04-01T00:48:46.310Z,98988.63
2023-04-01T00:51:17.161Z,98990.72
2023-04-01T00:53:46.396Z,98994.97
2023-04-01T00:56:16.803Z,98993.13
2023-04-01T00:58:48.231Z,98994.75
2023-04-01T01:01:15.461Z,99001.69
2023-04-01T01:03:44.839Z,98999.25
2023-04-01T01:06:27.501Z,98997.41
2023-04-01T01:09:08.630Z,99000.06
2023-04-01T01:11:44.114Z,98998.22
2023-04-01T01:14:25.872Z,99005.16
2023-04-01T01:17:00.967Z,99005.16
2023-04-01T01:19:51.160Z,99003.31
2023-04-01T01:22:37.389Z,99009.44
2023-04-01T01:25:32.008Z,99008.41
2023-04-01T01:28:16.441Z,99014.75
2023-04-01T01:30:52.929Z,99012.91
2023-04-01T01:33:36.919Z,99005.75
2023-04-01T01:36:07.427Z,99010.03
2023-04-01T01:38:36.279Z,99014.53
2023-04-01T01:41:06.176Z,99010.81
2023-04-01T01:43:36.853Z,99019.84
2023-04-01T01:46:09.003Z,99018.00
2023-04-01T01:48:36.974Z,99019.03
2023-04-01T01:51:06.822Z,99020.88
2023-04-01T01:53:33.576Z,99024.34
2023-04-01T01:56:01.885Z,99020.06
2023-04-01T01:58:31.820Z,99033.38
2023-04-01T02:01:02.156Z,99031.75
2023-04-01T02:03:33.990Z,99033.38
2023-04-01T02:06:02.884Z,99036.84
2023-04-01T02:08:37.112Z,99036.25
2023-04-01T02:11:06.893Z,99036.47
2023-04-01T02:13:39.835Z,99038.31
2023-04-01T02:16:13.320Z,99043.91
2023-04-01T02:18:41.344Z,99051.06
2023-04-01T02:21:09.102Z,99042.03
2023-04-01T02:23:41.559Z,99048.97
2023-04-01T02:26:11.305Z,99046.31
2023-04-01T02:28:40.005Z,99048.72
2023-04-01T02:31:08.985Z,99050.59
2023-04-01T02:33:36.321Z,99055.09
2023-04-01T02:36:03.394Z,99051.63
2023-04-01T02:38:30.581Z,99044.72
2023-04-01T02:41:01.786Z,99050.03
2023-04-01T02:43:28.853Z,99054.53
2023-04-01T02:45:56.058Z,99051.63
2023-04-01T02:48:23.147Z,99058.00
2023-04-01T02:50:50.450Z,99063.06
2023-04-01T02:53:17.500Z,99059.84
2023-04-01T02:55:44.269Z,99064.81
2023-04-01T02:58:12.883Z,99058.09
2023-04-01T03:00:39.797Z,99060.19
2023-04-01T03:03:06.802Z,99063.66
2023-04-01T03:05:34.103Z,99065.28
2023-04-01T03:08:01.305Z,99068.97
2023-04-01T03:10:28.153Z,99062.84
2023-04-01T03:12:54.997Z,99065.50
2023-04-01T03:15:23.114Z,99072.88
2023-04-01T03:17:49.906Z,99073.13
2023-04-01T03:20:17.052Z,99070.47
2023-04-01T03:22:43.794Z,99066.19
2023-04-01T03:25:11.569Z,99067.47
2023-04-01T03:27:38.369Z,99075.44
2023-04-01T03:30:07.634Z,99078.91
2023-04-01T03:32:36.018Z,99076.25
2023-04-01T03:35:02.752Z,99073.00
2023-04-01T03:37:29.718Z,99075.66
2023-04-01T03:39:56.442Z,99077.28
2023-04-01T03:42:23.554Z,99082.81
2023-04-01T03:44:50.835Z,99076.69
2023-04-01T03:47:18.843Z,99079.84
2023-04-01T03:49:46.904Z,99080.59
2023-04-01T03:52:13.944Z,99091.50
2023-04-01T03:54:40.842Z,99091.50
2023-04-01T03:57:07.833Z,99081.09
2023-04-01T03:59:35.500Z,99088.47
2023-04-01T04:02:02.249Z,99085.00
2023-04-01T04:04:29.320Z,99090.31
2023-04-01T04:06:58.589Z,99090.78
2023-04-01T04:09:25.418Z,99089.75
2023-04-01T04:11:52.210Z,99097.72
2023-04-01T04:14:18.975Z,99088.13
2023-04-01T04:16:45.724Z,99092.63
2023-04-01T04:19:12.521Z,99093.44
2023-04-01T04:21:40.828Z,99096.31
2023-04-01T04:24:09.681Z,99099.78
2023-04-01T04:26:36.658Z,99109.63
2023-04-01T04:29:03.780Z,99099.19
2023-04-01T04:31:30.654Z,99102.91
2023-04-01T04:33:57.570Z,99111.47
2023-04-01T04:36:24.403Z,99106.59
2023-04-01T04:38:51.142Z,99115.63
2023-04-01T04:41:20.402Z,99115.84
2023-04-01T04:43:51.927Z,99116.66
2023-04-01T04:46:18.915Z,99109.72
2023-04-01T04:48:45.651Z,99117.69
2023-04-01T04:51:16.100Z,99119.31
2023-04-01T04:53:42.888Z,99118.72
2023-04-01T04:56:09.809Z,99121.38
2023-04-01T04:58:38.102Z,99120.56
2023-04-01T05:01:09.960Z,99128.31
2023-04-01T05:03:36.760Z,99121.97
2023-04-01T05:06:03.924Z,99128.91
2023-04-01T05:08:30.695Z,99126.00
2023-04-01T05:10:57.526Z,99133.53
2023-04-01T05:13:24.324Z,99128.22
2023-04-01T05:15:52.577Z,99134.34
2023-04-01T05:18:19.573Z,99137.00
2023-04-01T05:20:49.271Z,99144.97
2023-04-01T05:23:16.001Z,99144.97
2023-04-01T05:25:42.737Z,99147.63
2023-04-01T05:28:09.512Z,99145.78
2023-04-01T05:30:36.502Z,99150.88
2023-04-01T05:33:04.670Z,99149.25
2023-04-01T05:35:31.658Z,99154.31
2023-04-01T05:37:58.595Z,99160.44
2023-04-01T05:40:25.429Z,99157.78
2023-04-01T05:42:52.253Z,99167.38
2023-04-01T05:45:19.164Z,99171.91
2023-04-01T05:47:45.954Z,99170.63
2023-04-01T05:50:14.044Z,99180.03
2023-04-01T05:52:40.938Z,99178.75
2023-04-01T05:55:08.397Z,99182.00
2023-04-01T05:57:36.071Z,99186.50
2023-04-01T06:00:03.691Z,99196.31
2023-04-01T06:02:30.532Z,99204.88
2023-04-01T06:05:11.770Z,99204.41
2023-04-01T06:07:40.011Z,99208.69
2023-04-01T06:10:13.569Z,99210.53
2023-04-01T06:12:51.364Z,99211.56
2023-04-01T06:15:32.196Z,99214.22
2023-04-01T06:18:20.615Z,99223.03
2023-04-01T06:20:58.017Z,99224.88
2023-04-01T06:23:36.881Z,99233.66
2023-04-01T06:26:12.961Z,99237.94
2023-04-01T06:29:01.830Z,99233.44
2023-04-01T06:31:43.909Z,99246.50
2023-04-01T06:34:28.492Z,99248.13
2023-04-01T06:37:22.263Z,99254.03
2023-04-01T06:40:04.421Z,99259.13
2023-04-01T06:42:51.792Z,99260.53
2023-04-01T06:45:33.286Z,99262.50
2023-04-01T06:48:38.571Z,99271.06
2023-04-01T06:51:16.745Z,99266.78
2023-04-01T06:53:55.512Z,99269.22
2023-04-01T06:56:29.003Z,99276.59
2023-04-01T06:59:01.910Z,99282.94
2023-04-01T07:01:34.763Z,99289.34
2023-04-01T07:04:06.196Z,99291.53
2023-04-01T07:06:37.635Z,99286.00
2023-04-01T07:09:10.394Z,99289.25
2023-04-01T07:11:40.040Z,99294.31
2023-04-01T07:14:18.871Z,99299.19
2023-04-01T07:16:48.961Z,99301.84
2023-04-01T07:19:22.032Z,99303.69
2023-04-01T07:21:53.104Z,99314.56
2023-04-01T07:24:25.603Z,99316.19
2023-04-01T07:26:57.460Z,99314.56
2023-04-01T07:29:26.459Z,99319.44
2023-04-01T07:32:14.811Z,99326.72
2023-04-01T07:34:51.718Z,99326.50
2023-04-01T07:37:25.356Z,99336.72
2023-04-01T07:40:02.725Z,99340.53
2023-04-01T07:42:42.575Z,99339.28
2023-04-01T07:45:18.936Z,99341.94
2023-04-01T07:47:57.807Z,99347.81
2023-04-01T07:50:28.906Z,99350.88
2023-04-01T07:53:09.442Z,99352.03
2023-04-01T07:55:43.644Z,99352.03
2023-04-01T07:58:21.510Z,99355.28
2023-04-01T08:00:59.686Z,99369.75
2023-04-01T08:03:39.188Z,99364.19
2023-04-01T08:06:15.567Z,99364.78
2023-04-01T08:08:53.646Z,99374.19
2023-04-01T08:11:32.576Z,99374.75
2023-04-01T08:14:08.973Z,99378.00
2023-04-01T08:16:42.797Z,99384.72
2023-04-01T08:19:22.333Z,99385.28
2023-04-01T08:21:53.440Z,99394.69
2023-04-01T08:24:37.142Z,99393.19
2023-04-01T08:27:18.871Z,99402.59
2023-04-01T08:29:52.401Z,99402.97
2023-04-01T08:32:26.787Z,99407.00
2023-04-01T08:35:08.188Z,99418.84
2023-04-01T08:37:40.078Z,99413.97
2023-04-01T08:40:26.505Z,99420.09
2023-04-01T08:43:05.665Z,99418.84
2023-04-01T08:45:55.056Z,99433.53
2023-04-01T08:48:57.127Z,99430.88
2023-04-01T08:51:49.224Z,99442.47
2023-04-01T08:54:34.948Z,99438.34
2023-04-01T08:57:09.820Z,99442.63
2023-04-01T08:59:51.794Z,99450.94
2023-04-01T09:02:45.065Z,99444.97
2023-04-01T09:05:49.049Z,99455.97
2023-04-01T09:08:30.664Z,99459.44
2023-04-01T09:11:11.831Z,99461.88
2023-04-01T09:14:08.240Z,99474.16
2023-04-01T09:17:02.503Z,99465.47
2023-04-01T09:19:41.393Z,99467.69
2023-04-01T09:22:40.245Z,99473.38
2023-04-01T09:25:22.452Z,99475.81
2023-04-01T09:27:57.915Z,99480.66
2023-04-01T09:31:03.287Z,99487.41
2023-04-01T09:34:06.430Z,99492.72
2023-04-01T09:36:48.744Z,99498.88
2023-04-01T09:39:36.902Z,99497.03
2023-04-01T09:42:16.769Z,99505.00
2023-04-01T09:44:54.191Z,99506.88
2023-04-01T09:47:41.291Z,99508.50
2023-04-01T09:50:44.844Z,99513.34
2023-04-01T09:53:29.070Z,99520.09
2023-04-01T09:56:34.275Z,99521.72
2023-04-01T09:59:36.665Z,99529.72
2023-04-01T10:02:25.509Z,99533.63
2023-04-01T10:05:28.714Z,99528.56
2023-04-01T10:08:16.606Z,99541.50
2023-04-01T10:11:12.807Z,99542.53
2023-04-01T10:14:16.412Z,99548.69
2023-04-01T10:17:19.213Z,99552.84
2023-04-01T10:20:23.134Z,99546.50
2023-04-01T10:23:10.154Z,99554.47
2023-04-01T10:26:04.348Z,99558.75
2023-04-01T10:28:55.157Z,99555.88
2023-04-01T10:32:07.199Z,99558.09
2023-04-01T10:35:17.843Z,99566.06
2023-04-01T10:38:28.174Z,99560.28
2023-04-01T10:41:26.479Z,99566.66
2023-04-01T10:44:34.985Z,99571.75
2023-04-01T10:47:51.291Z,99574.41
2023-04-01T10:50:47.715Z,99573.84
2023-04-01T10:53:35.437Z,99578.13
2023-04-01T10:56:39.709Z,99572.78
2023-04-01T10:59:45.652Z,99577.47
2023-04-01T11:03:08.920Z,99572.94
2023-04-01T11:06:13.259Z,99579.44
2023-04-01T11:09:40.260Z,99575.84
2023-04-01T11:12:47.424Z,99579.94
2023-04-01T11:15:42.762Z,99583.75
2023-04-01T11:18:46.337Z,99588.63
2023-04-01T11:21:50.720Z,99586.78
2023-04-01T11:25:06.885Z,99584.94
2023-04-01T11:27:58.073Z,99585.28
2023-04-01T11:30:36.822Z,99592.03
2023-04-01T11:33:12.231Z,99597.69
2023-04-01T11:35:57.710Z,99605.25
2023-04-01T11:38:36.275Z,99611.50
2023-04-01T11:41:20.293Z,99618.28
2023-04-01T11:44:08.845Z,99619.88
2023-04-01T11:46:46.025Z,99622.97
2023-04-01T11:49:41.269Z,99620.09
2023-04-01T11:52:28.696Z,99624.75
2023-04-01T11:55:29.426Z,99631.47
2023-04-01T11:58:19.736Z,99644.59
2023-04-01T12:01:00.622Z,99642.50
2023-04-01T12:03:52.438Z,99651.69
2023-04-01T12:06:27.165Z,99648.75
2023-04-01T12:09:02.229Z,99652.25
2023-04-01T12:11:40.780Z,99657.81
2023-04-01T12:14:17.702Z,99653.31
2023-04-01T12:16:57.833Z,99667.06
2023-04-01T12:19:33.657Z,99671.00
2023-04-01T12:22:28.795Z,99671.25
2023-04-01T12:25:06.680Z,99677.81
2023-04-01T12:27:43.110Z,99678.03
2023-04-01T12:30:54.956Z,99682.56
2023-04-01T12:33:59.789Z,99679.91
2023-04-01T12:36:49.926Z,99687.53
2023-04-01T12:39:53.412Z,99682.66
2023-04-01T12:42:37.886Z,99693.78
2023-04-01T12:45:26.364Z,99703.22
2023-04-01T12:48:32.673Z,99708.41
2023-04-01T12:51:29.004Z,99709.88
2023-04-01T12:54:28.749Z,99717.66
2023-04-01T12:57:07.236Z,99723.00
2023-04-01T12:59:48.191Z,99724.41
2023-04-01T13:02:27.550Z,99731.13
2023-04-01T13:05:42.876Z,99739.38
2023-04-01T13:08:24.626Z,99739.38
2023-04-01T13:11:04.034Z,99747.50
2023-04-01T13:14:01.879Z,99741.75
2023-04-01T13:16:32.378Z,99752.53
2023-04-01T13:19:06.423Z,99754.72
2023-04-01T13:21:51.517Z,99754.91
2023-04-01T13:24:37.884Z,99760.38
2023-04-01T13:27:13.755Z,99766.88
2023-04-01T13:29:44.884Z,99760.88
2023-04-01T13:32:43.461Z,99772.72
2023-04-01T13:35:23.759Z,99781.44
2023-04-01T13:38:01.904Z,99779.38
2023-04-01T13:41:02.171Z,99778.34
2023-04-01T13:43:37.236Z,99783.00
2023-04-01T13:46:13.590Z,99789.75
2023-04-01T13:49:05.451Z,99785.81
2023-04-01T13:51:57.491Z,99794.50
2023-04-01T13:54:36.192Z,99803.53
2023-04-01T13:57:21.357Z,99797.97
2023-04-01T14:00:26.551Z,99808.03
2023-04-01T14:03:19.794Z,99808.03
2023-04-01T14:05:56.552Z,99811.97
2023-04-01T14:08:37.130Z,99820.81
2023-04-01T14:11:16.273Z,99818.69
2023-04-01T14:13:53.538Z,99821.38
2023-04-01T14:17:01.120Z,99832.63
2023-04-01T14:20:04.320Z,99834.28
2023-04-01T14:22:42.976Z,99838.56
2023-04-01T14:25:37.043Z,99841.00
2023-04-01T14:28:14.830Z,99844.47
2023-04-01T14:30:59.493Z,99845.53
2023-04-01T14:33:42.912Z,99856.22
2023-04-01T14:36:36.397Z,99853.75
2023-04-01T14:39:21.753Z,99861.97
2023-04-01T14:41:56.466Z,99859.31
2023-04-01T14:44:44.319Z,99864.63
2023-04-01T14:47:44.992Z,99865.47
2023-04-01T14:50:17.694Z,99865.25
2023-04-01T14:52:52.999Z,99877.53
2023-04-01T14:55:32.300Z,99889.00
2023-04-01T14:58:09.270Z,99887.00
2023-04-01T15:00:50.306Z,99891.16
2023-04-01T15:03:25.101Z,99889.75
2023-04-01T15:05:57.575Z,99893.09
2023-04-01T15:08:29.572Z,99899.47
2023-04-01T15:11:23.143Z,99900.50
2023-04-01T15:14:14.648Z,99908.28
2023-04-01T15:16:51.268Z,99916.84
2023-04-01T15:19:29.717Z,99918.72
2023-04-01T15:22:27.821Z,99919.75
2023-04-01T15:25:14.859Z,99926.94
2023-04-01T15:27:50.902Z,99931.66
2023-04-01T15:30:34.444Z,99941.31
2023-04-01T15:33:18.819Z,99938.03
2023-04-01T15:35:52.142Z,99939.06
2023-04-01T15:38:31.993Z,99943.56
2023-04-01T15:41:05.023Z,99957.38
2023-04-01T15:43:42.168Z,99953.88
2023-04-01T15:46:47.797Z,99958.66
2023-04-01T15:49:26.113Z,99973.75
2023-04-01T15:52:15.506Z,99976.81
2023-04-01T15:55:17.499Z,99979.34
2023-04-01T15:58:00.584Z,99983.22
2023-04-01T16:00:31.334Z,99990.03
2023-04-01T16:03:34.298Z,99994.56
2023-04-01T16:06:19.297Z,100005.22
2023-04-01T16:09:03.900Z,100014.88
2023-04-01T16:11:42.144Z,100018.78
2023-04-01T16:14:24.816Z,100036.00
2023-04-01T16:17:11.581Z,100033.34
2023-04-01T16:19:54.163Z,100039.91
2023-04-01T16:22:28.098Z,100046.47
2023-04-01T16:25:02.220Z,100046.25
2023-04-01T16:27:38.497Z,100046.25
2023-04-01T16:30:28.717Z,100060.19
2023-04-01T16:33:03.584Z,100053.44
2023-04-01T16:35:42.608Z,100058.75
2023-04-01T16:38:17.748Z,100066.53
2023-04-01T16:40:53.289Z,100072.06
2023-04-01T16:43:27.044Z,100073.75
2023-04-01T16:46:13.350Z,100080.91
2023-04-01T16:48:59.907Z,100094.66
2023-04-01T16:51:35.417Z,100094.47
2023-04-01T16:54:07.853Z,100105.34
2023-04-01T16:56:43.279Z,100108.84
2023-04-01T16:59:19.045Z,100116.03
2023-04-01T17:01:52.161Z,100124.84
2023-04-01T17:04:30.391Z,100135.34
2023-04-01T17:07:08.378Z,100129.22
2023-04-01T17:09:50.942Z,100131.25
2023-04-01T17:12:25.430Z,100139.66
2023-04-01T17:15:00.681Z,100152.97
2023-04-01T17:17:47.490Z,100161.53
2023-04-01T17:20:27.597Z,100166.06
2023-04-01T17:22:59.957Z,100168.53
2023-04-01T17:25:40.659Z,100181.66
2023-04-01T17:28:21.415Z,100187.56
2023-04-01T17:30:56.465Z,100192.28
2023-04-01T17:33:44.744Z,100199.66
2023-04-01T17:36:22.989Z,100203.16
2023-04-01T17:39:16.526Z,100211.34
2023-04-01T17:41:52.317Z,100222.81
2023-04-01T17:44:39.525Z,100226.66
2023-04-01T17:47:18.373Z,100234.66
2023-04-01T17:49:55.506Z,100241.00
2023-04-01T17:52:31.678Z,100246.50
2023-04-01T17:55:06.792Z,100254.72
2023-04-01T17:57:52.948Z,100256.94
2023-04-01T18:00:30.129Z,100266.97
2023-04-01T18:03:18.532Z,100275.16
2023-04-01T18:06:00.987Z,100277.00
2023-04-01T18:08:45.338Z,100290.06
2023-04-01T18:11:21.551Z,100293.31
2023-04-01T18:14:34.075Z,100306.22
2023-04-01T18:17:23.975Z,100309.63
2023-04-01T18:20:04.978Z,100319.03
2023-04-01T18:22:42.327Z,100329.66
2023-04-01T18:25:30.986Z,100339.25
2023-04-01T18:28:18.553Z,100334.91
2023-04-01T18:30:53.399Z,100344.72
2023-04-01T18:33:26.917Z,100358.66
2023-04-01T18:35:59.321Z,100357.38
2023-04-01T18:38:31.044Z,100371.06
2023-04-01T18:41:14.941Z,100379.25
2023-04-01T18:43:51.502Z,100374.13
2023-04-01T18:46:23.583Z,100382.28
2023-04-01T18:48:59.046Z,100406.38
2023-04-01T18:51:35.786Z,100402.28
2023-04-01T18:54:09.305Z,100413.50
2023-04-01T18:56:40.839Z,100412.88
2023-04-01T18:59:12.796Z,100422.88
2023-04-01T19:01:44.875Z,100419.38
2023-04-01T19:04:21.276Z,100432.69
2023-04-01T19:06:54.341Z,100442.06
2023-04-01T19:09:24.711Z,100442.88
2023-04-01T19:12:13.554Z,100460.25
2023-04-01T19:14:54.732Z,100457.19
2023-04-01T19:17:32.110Z,100465.97
2023-04-01T19:20:08.644Z,100464.44
2023-04-01T19:23:03.875Z,100472.44
2023-04-01T19:25:39.647Z,100484.06
2023-04-01T19:28:27.584Z,100493.84
2023-04-01T19:30:58.971Z,100493.63
2023-04-01T19:33:50.126Z,100501.13
2023-04-01T19:36:25.527Z,100513.50
2023-04-01T19:39:00.915Z,100507.34
2023-04-01T19:41:40.602Z,100520.44
2023-04-01T19:44:28.641Z,100522.47
2023-04-01T19:47:04.458Z,100520.38
2023-04-01T19:49:44.064Z,100530.19
2023-04-01T19:52:19.568Z,100528.72
2023-04-01T19:54:56.606Z,100534.41
2023-04-01T19:57:37.318Z,100540.47
2023-04-01T20:00:17.177Z,100552.47
2023-04-01T20:03:03.541Z,100554.94
2023-04-01T20:05:43.218Z,100560.44
2023-04-01T20:08:17.716Z,100567.78
2023-04-01T20:10:57.473Z,100577.19
2023-04-01T20:13:35.100Z,100580.16
2023-04-01T20:16:07.062Z,100590.78
2023-04-01T20:18:40.896Z,100597.09
2023-04-01T20:21:20.697Z,100596.63
2023-04-01T20:23:52.718Z,100602.75
2023-04-01T20:26:24.314Z,100608.88
2023-04-01T20:29:16.548Z,100613.38
2023-04-01T20:31:51.377Z,100622.31
2023-04-01T20:34:33.899Z,100630.03
2023-04-01T20:37:11.593Z,100631.66
2023-04-01T20:40:02.314Z,100642.81
2023-04-01T20:42:42.480Z,100651.31
2023-04-01T20:45:25.543Z,100645.72
2023-04-01T20:48:22.935Z,100660.38
2023-04-01T20:50:53.052Z,100664.19
2023-04-01T20:53:27.427Z,100675.53
2023-04-01T20:56:13.935Z,100674.88
2023-04-01T20:58:53.931Z,100687.94
2023-04-01T21:01:34.233Z,100694.75
2023-04-01T21:04:22.930Z,100694.25
2023-04-01T21:07:20.830Z,100693.16
2023-04-01T21:10:10.397Z,100704.91
2023-04-01T21:12:43.501Z,100712.75
2023-04-01T21:15:27.420Z,100719.22
2023-04-01T21:18:05.392Z,100726.91
2023-04-01T21:21:01.149Z,100739.19
2023-04-01T21:23:43.244Z,100737.09
2023-04-01T21:26:24.435Z,100744.66
2023-04-01T21:29:18.276Z,100748.69
2023-04-01T21:32:04.153Z,100759.13
2023-04-01T21:34:44.591Z,100756.28
2023-04-01T21:37:51.906Z,100766.53
2023-04-01T21:40:44.363Z,100774.84
2023-04-01T21:43:27.601Z,100771.38
2023-04-01T21:46:16.986Z,100781.31
2023-04-01T21:49:18.418Z,100794.28
2023-04-01T21:52:28.899Z,100803.06
2023-04-01T21:55:34.321Z,100806.88
2023-04-01T21:58:48.302Z,100814.00
2023-04-01T22:01:36.663Z,100813.53
2023-04-01T22:04:32.816Z,100822.47
2023-04-01T22:07:07.881Z,100829.44
2023-04-01T22:09:40.808Z,100836.56
2023-04-01T22:12:19.231Z,100836.56
2023-04-01T22:14:57.834Z,100841.19
2023-04-01T22:17:32.688Z,100845.66
2023-04-01T22:20:12.163Z,100848.84
2023-04-01T22:22:56.411Z,100857.78
2023-04-01T22:25:30.979Z,100860.06
2023-04-01T22:28:04.887Z,100864.22
2023-04-01T22:30:39.494Z,100872.31
2023-04-01T22:33:12.356Z,100872.47
2023-04-01T22:35:45.815Z,100872.69
2023-04-01T22:38:24.090Z,100884.25
2023-04-01T22:40:59.157Z,100890.41
2023-04-01T22:43:35.506Z,100898.03
2023-04-01T22:46:22.647Z,100902.31
2023-04-01T22:48:55.020Z,100903.34
2023-04-01T22:51:26.510Z,100912.59
2023-04-01T22:54:04.451Z,100918.25
2023-04-01T22:56:34.518Z,100922.19
2023-04-01T22:59:09.327Z,100920.88
2023-04-01T23:01:46.913Z,100927.81
2023-04-01T23:04:17.757Z,100930.63
2023-04-01T23:06:51.107Z,100942.06
2023-04-01T23:09:26.001Z,100945.34
2023-04-01T23:11:56.403Z,100943.19
2023-04-01T23:14:41.632Z,100950.31
2023-04-01T23:17:34.156Z,100948.66
2023-04-01T23:20:11.909Z,100951.31
2023-04-01T23:22:51.415Z,100953.94
2023-04-01T23:25:28.797Z,100959.91
2023-04-01T23:28:04.889Z,100966.03
2023-04-01T23:30:51.172Z,100969.03
2023-04-01T23:33:24.960Z,100974.50
2023-04-01T23:35:54.712Z,100984.25
2023-04-01T23:38:24.413Z,100982.75
2023-04-01T23:40:54.650Z,100989.38
2023-04-01T23:43:25.208Z,100995.66
2023-04-01T23:45:52.196Z,100998.31
2023-04-01T23:48:24.908Z,101005.25
2023-04-01T23:50:51.894Z,101015.34
2023-04-01T23:53:22.341Z,101018.16
2023-04-01T23:55:52.748Z,101015.84
2023-04-01T23:58:25.771Z,101029.38
